sensor_id;sensor_type;location;lat;lon;timestamp;P1;durP1;ratioP1;P2;durP2;ratioP2
10041;SDS011;5061;49.068;12.058;2023-05-10T00:02:17;1.80;;;1.60;;
10041;SDS011;5061;49.068;12.058;2023-05-10T00:05:38;2.20;;;2.00;;
10041;SDS011;5061;49.068;12.058;2023-05-10T00:08:59;1.60;;;1.50;;
10041;SDS011;5061;49.068;12.058;2023-05-10T00:12:23;1.80;;;1.67;;
10041;SDS011;5061;49.068;12.058;2023-05-10T00:15:44;1.97;;;1.77;;
10041;SDS011;5061;49.068;12.058;2023-05-10T00:19:06;2.00;;;1.63;;
10041;SDS011;5061;49.068;12.058;2023-05-10T00:22:27;1.67;;;1.57;;
10041;SDS011;5061;49.068;12.058;2023-05-10T00:25:48;2.10;;;1.83;;
10041;SDS011;5061;49.068;12.058;2023-05-10T00:29:09;1.80;;;1.60;;
10041;SDS011;5061;49.068;12.058;2023-05-10T00:32:30;1.77;;;1.57;;
10041;SDS011;5061;49.068;12.058;2023-05-10T00:35:51;1.97;;;1.77;;
10041;SDS011;5061;49.068;12.058;2023-05-10T00:39:13;2.13;;;1.93;;
10041;SDS011;5061;49.068;12.058;2023-05-10T00:42:33;1.83;;;1.73;;
10041;SDS011;5061;49.068;12.058;2023-05-10T00:45:54;1.90;;;1.70;;
10041;SDS011;5061;49.068;12.058;2023-05-10T00:49:16;1.90;;;1.70;;
10041;SDS011;5061;49.068;12.058;2023-05-10T00:52:38;2.70;;;1.80;;
10041;SDS011;5061;49.068;12.058;2023-05-10T00:55:59;2.27;;;2.07;;
10041;SDS011;5061;49.068;12.058;2023-05-10T00:59:20;2.40;;;2.20;;
10041;SDS011;5061;49.068;12.058;2023-05-10T01:02:42;2.03;;;1.87;;
10041;SDS011;5061;49.068;12.058;2023-05-10T01:06:03;1.87;;;1.73;;
10041;SDS011;5061;49.068;12.058;2023-05-10T01:09:25;2.83;;;2.10;;
10041;SDS011;5061;49.068;12.058;2023-05-10T01:12:47;2.50;;;2.30;;
10041;SDS011;5061;49.068;12.058;2023-05-10T01:16:08;2.70;;;2.43;;
10041;SDS011;5061;49.068;12.058;2023-05-10T01:19:29;3.07;;;2.40;;
10041;SDS011;5061;49.068;12.058;2023-05-10T01:30:30;3.43;;;2.80;;
10041;SDS011;5061;49.068;12.058;2023-05-10T01:33:59;2.43;;;2.23;;
10041;SDS011;5061;49.068;12.058;2023-05-10T01:37:25;5.50;;;2.77;;
10041;SDS011;5061;49.068;12.058;2023-05-10T01:48:16;2.53;;;2.33;;
10041;SDS011;5061;49.068;12.058;2023-05-10T01:51:47;2.53;;;2.23;;
10041;SDS011;5061;49.068;12.058;2023-05-10T01:55:13;2.30;;;2.10;;
10041;SDS011;5061;49.068;12.058;2023-05-10T01:58:39;2.87;;;2.67;;
10041;SDS011;5061;49.068;12.058;2023-05-10T02:02:05;5.57;;;2.77;;
10041;SDS011;5061;49.068;12.058;2023-05-10T02:05:28;6.30;;;3.47;;
10041;SDS011;5061;49.068;12.058;2023-05-10T02:08:52;3.17;;;2.70;;
10041;SDS011;5061;49.068;12.058;2023-05-10T02:12:13;3.10;;;2.53;;
10041;SDS011;5061;49.068;12.058;2023-05-10T02:15:36;2.77;;;2.20;;
10041;SDS011;5061;49.068;12.058;2023-05-10T02:18:58;2.40;;;2.20;;
10041;SDS011;5061;49.068;12.058;2023-05-10T02:22:21;2.57;;;2.03;;
10041;SDS011;5061;49.068;12.058;2023-05-10T02:25:44;3.17;;;2.47;;
10041;SDS011;5061;49.068;12.058;2023-05-10T02:29:06;3.37;;;2.87;;
10041;SDS011;5061;49.068;12.058;2023-05-10T02:32:30;2.90;;;2.53;;
10041;SDS011;5061;49.068;12.058;2023-05-10T02:35:52;3.27;;;2.90;;
10041;SDS011;5061;49.068;12.058;2023-05-10T02:39:15;2.83;;;2.50;;
10041;SDS011;5061;49.068;12.058;2023-05-10T02:42:37;2.60;;;2.40;;
10041;SDS011;5061;49.068;12.058;2023-05-10T02:46:02;3.00;;;2.70;;
10041;SDS011;5061;49.068;12.058;2023-05-10T02:49:23;3.53;;;2.93;;
10041;SDS011;5061;49.068;12.058;2023-05-10T02:52:46;3.03;;;2.50;;
10041;SDS011;5061;49.068;12.058;2023-05-10T02:56:31;3.10;;;2.70;;
10041;SDS011;5061;49.068;12.058;2023-05-10T02:59:54;5.43;;;3.67;;
10041;SDS011;5061;49.068;12.058;2023-05-10T03:03:15;4.60;;;3.57;;
10041;SDS011;5061;49.068;12.058;2023-05-10T03:06:36;4.33;;;3.77;;
10041;SDS011;5061;49.068;12.058;2023-05-10T03:09:58;3.77;;;3.43;;
10041;SDS011;5061;49.068;12.058;2023-05-10T03:14:21;5.17;;;4.20;;
10041;SDS011;5061;49.068;12.058;2023-05-10T03:17:23;3.40;;;3.03;;
10041;SDS011;5061;49.068;12.058;2023-05-10T03:20:51;6.83;;;4.00;;
10041;SDS011;5061;49.068;12.058;2023-05-10T03:24:23;4.37;;;3.93;;
10041;SDS011;5061;49.068;12.058;2023-05-10T03:27:50;4.47;;;3.70;;
10041;SDS011;5061;49.068;12.058;2023-05-10T03:31:12;4.60;;;3.43;;
10041;SDS011;5061;49.068;12.058;2023-05-10T03:34:33;4.27;;;3.60;;
10041;SDS011;5061;49.068;12.058;2023-05-10T03:37:54;3.90;;;3.50;;
10041;SDS011;5061;49.068;12.058;2023-05-10T03:41:15;4.30;;;3.50;;
10041;SDS011;5061;49.068;12.058;2023-05-10T03:44:36;4.53;;;3.50;;
10041;SDS011;5061;49.068;12.058;2023-05-10T03:47:58;3.63;;;3.30;;
10041;SDS011;5061;49.068;12.058;2023-05-10T03:51:19;4.57;;;4.13;;
10041;SDS011;5061;49.068;12.058;2023-05-10T03:54:40;4.73;;;3.37;;
10041;SDS011;5061;49.068;12.058;2023-05-10T03:58:01;4.20;;;3.47;;
10041;SDS011;5061;49.068;12.058;2023-05-10T04:01:22;9.33;;;3.73;;
10041;SDS011;5061;49.068;12.058;2023-05-10T04:04:43;5.00;;;3.47;;
10041;SDS011;5061;49.068;12.058;2023-05-10T04:08:05;3.97;;;3.47;;
10041;SDS011;5061;49.068;12.058;2023-05-10T04:11:26;3.90;;;3.20;;
10041;SDS011;5061;49.068;12.058;2023-05-10T04:14:47;5.00;;;4.20;;
10041;SDS011;5061;49.068;12.058;2023-05-10T04:18:09;5.80;;;3.60;;
10041;SDS011;5061;49.068;12.058;2023-05-10T04:21:30;4.67;;;3.73;;
10041;SDS011;5061;49.068;12.058;2023-05-10T04:24:52;5.63;;;3.73;;
10041;SDS011;5061;49.068;12.058;2023-05-10T04:28:13;4.27;;;3.87;;
10041;SDS011;5061;49.068;12.058;2023-05-10T04:31:35;4.40;;;4.00;;
10041;SDS011;5061;49.068;12.058;2023-05-10T04:34:56;5.87;;;4.13;;
10041;SDS011;5061;49.068;12.058;2023-05-10T04:38:17;5.27;;;4.03;;
10041;SDS011;5061;49.068;12.058;2023-05-10T04:41:38;4.13;;;3.70;;
10041;SDS011;5061;49.068;12.058;2023-05-10T04:45:01;4.20;;;3.70;;
10041;SDS011;5061;49.068;12.058;2023-05-10T04:48:22;4.63;;;3.83;;
10041;SDS011;5061;49.068;12.058;2023-05-10T04:51:43;6.30;;;4.70;;
10041;SDS011;5061;49.068;12.058;2023-05-10T04:55:04;5.33;;;4.13;;
10041;SDS011;5061;49.068;12.058;2023-05-10T04:58:27;7.07;;;4.37;;
10041;SDS011;5061;49.068;12.058;2023-05-10T05:01:48;4.93;;;4.20;;
10041;SDS011;5061;49.068;12.058;2023-05-10T05:05:11;7.53;;;4.87;;
10041;SDS011;5061;49.068;12.058;2023-05-10T05:08:33;5.23;;;4.57;;
10041;SDS011;5061;49.068;12.058;2023-05-10T05:11:56;6.30;;;4.33;;
10041;SDS011;5061;49.068;12.058;2023-05-10T05:15:17;4.90;;;4.20;;
10041;SDS011;5061;49.068;12.058;2023-05-10T05:18:39;7.13;;;3.93;;
10041;SDS011;5061;49.068;12.058;2023-05-10T05:22:00;5.03;;;4.17;;
10041;SDS011;5061;49.068;12.058;2023-05-10T05:25:22;5.03;;;4.53;;
10041;SDS011;5061;49.068;12.058;2023-05-10T05:28:43;4.40;;;3.90;;
10041;SDS011;5061;49.068;12.058;2023-05-10T05:32:04;5.50;;;3.70;;
10041;SDS011;5061;49.068;12.058;2023-05-10T05:35:28;5.63;;;4.50;;
10041;SDS011;5061;49.068;12.058;2023-05-10T05:38:49;5.27;;;4.53;;
10041;SDS011;5061;49.068;12.058;2023-05-10T05:42:11;4.77;;;3.90;;
10041;SDS011;5061;49.068;12.058;2023-05-10T05:45:32;4.37;;;3.87;;
10041;SDS011;5061;49.068;12.058;2023-05-10T05:48:53;5.60;;;4.27;;
10041;SDS011;5061;49.068;12.058;2023-05-10T05:52:15;4.87;;;4.13;;
10041;SDS011;5061;49.068;12.058;2023-05-10T05:55:36;4.77;;;4.23;;
10041;SDS011;5061;49.068;12.058;2023-05-10T05:58:57;4.40;;;3.77;;
10041;SDS011;5061;49.068;12.058;2023-05-10T06:02:18;3.90;;;3.50;;
10041;SDS011;5061;49.068;12.058;2023-05-10T06:05:39;5.20;;;4.37;;
10041;SDS011;5061;49.068;12.058;2023-05-10T06:09:00;3.57;;;3.27;;
10041;SDS011;5061;49.068;12.058;2023-05-10T06:12:21;6.20;;;4.97;;
10041;SDS011;5061;49.068;12.058;2023-05-10T06:15:43;5.00;;;4.20;;
10041;SDS011;5061;49.068;12.058;2023-05-10T06:19:04;5.27;;;4.23;;
10041;SDS011;5061;49.068;12.058;2023-05-10T06:22:25;6.27;;;5.00;;
10041;SDS011;5061;49.068;12.058;2023-05-10T06:25:46;5.93;;;4.73;;
10041;SDS011;5061;49.068;12.058;2023-05-10T06:29:07;7.73;;;5.27;;
10041;SDS011;5061;49.068;12.058;2023-05-10T06:32:28;4.57;;;4.03;;
10041;SDS011;5061;49.068;12.058;2023-05-10T06:35:49;7.57;;;5.10;;
10041;SDS011;5061;49.068;12.058;2023-05-10T06:39:10;6.30;;;4.00;;
10041;SDS011;5061;49.068;12.058;2023-05-10T06:42:32;5.03;;;4.27;;
10041;SDS011;5061;49.068;12.058;2023-05-10T06:45:53;4.83;;;3.80;;
10041;SDS011;5061;49.068;12.058;2023-05-10T06:49:14;4.63;;;3.73;;
10041;SDS011;5061;49.068;12.058;2023-05-10T06:52:35;6.27;;;4.67;;
10041;SDS011;5061;49.068;12.058;2023-05-10T06:55:57;3.83;;;3.53;;
10041;SDS011;5061;49.068;12.058;2023-05-10T06:59:18;4.40;;;4.00;;
10041;SDS011;5061;49.068;12.058;2023-05-10T07:02:39;9.83;;;4.00;;
10041;SDS011;5061;49.068;12.058;2023-05-10T07:06:03;8.60;;;3.63;;
10041;SDS011;5061;49.068;12.058;2023-05-10T07:09:25;5.27;;;4.23;;
10041;SDS011;5061;49.068;12.058;2023-05-10T07:12:46;5.80;;;4.97;;
10041;SDS011;5061;49.068;12.058;2023-05-10T07:16:07;5.97;;;5.00;;
10041;SDS011;5061;49.068;12.058;2023-05-10T07:19:29;5.03;;;4.23;;
10041;SDS011;5061;49.068;12.058;2023-05-10T07:22:50;7.10;;;4.17;;
10041;SDS011;5061;49.068;12.058;2023-05-10T07:26:11;4.13;;;3.73;;
10041;SDS011;5061;49.068;12.058;2023-05-10T07:29:32;4.77;;;4.03;;
10041;SDS011;5061;49.068;12.058;2023-05-10T07:32:53;4.00;;;3.53;;
10041;SDS011;5061;49.068;12.058;2023-05-10T07:36:15;3.80;;;3.27;;
10041;SDS011;5061;49.068;12.058;2023-05-10T07:39:36;3.10;;;2.80;;
10041;SDS011;5061;49.068;12.058;2023-05-10T07:42:57;4.30;;;3.10;;
10041;SDS011;5061;49.068;12.058;2023-05-10T07:46:19;3.73;;;3.40;;
10041;SDS011;5061;49.068;12.058;2023-05-10T07:49:40;2.80;;;2.37;;
10041;SDS011;5061;49.068;12.058;2023-05-10T07:53:01;3.10;;;2.80;;
10041;SDS011;5061;49.068;12.058;2023-05-10T07:59:49;3.27;;;2.73;;
10041;SDS011;5061;49.068;12.058;2023-05-10T08:03:10;2.60;;;2.40;;
10041;SDS011;5061;49.068;12.058;2023-05-10T08:06:31;2.33;;;1.97;;
10041;SDS011;5061;49.068;12.058;2023-05-10T08:09:52;2.77;;;2.47;;
10041;SDS011;5061;49.068;12.058;2023-05-10T08:13:13;1.10;;;1.00;;
10041;SDS011;5061;49.068;12.058;2023-05-10T08:16:34;1.40;;;1.30;;
10041;SDS011;5061;49.068;12.058;2023-05-10T08:19:55;1.27;;;0.97;;
10041;SDS011;5061;49.068;12.058;2023-05-10T08:23:17;1.10;;;1.00;;
10041;SDS011;5061;49.068;12.058;2023-05-10T08:26:45;1.10;;;1.00;;
10041;SDS011;5061;49.068;12.058;2023-05-10T08:30:07;1.20;;;1.10;;
10041;SDS011;5061;49.068;12.058;2023-05-10T08:33:33;0.80;;;0.80;;
10041;SDS011;5061;49.068;12.058;2023-05-10T08:36:54;1.13;;;1.00;;
10041;SDS011;5061;49.068;12.058;2023-05-10T08:40:15;1.13;;;1.03;;
10041;SDS011;5061;49.068;12.058;2023-05-10T08:43:41;0.87;;;0.87;;
10041;SDS011;5061;49.068;12.058;2023-05-10T08:47:06;0.80;;;0.80;;
10041;SDS011;5061;49.068;12.058;2023-05-10T08:50:29;1.13;;;1.03;;
10041;SDS011;5061;49.068;12.058;2023-05-10T08:53:51;1.00;;;0.90;;
10041;SDS011;5061;49.068;12.058;2023-05-10T08:57:13;1.00;;;0.90;;
10041;SDS011;5061;49.068;12.058;2023-05-10T09:00:34;1.37;;;1.00;;
10041;SDS011;5061;49.068;12.058;2023-05-10T09:03:55;1.53;;;1.00;;
10041;SDS011;5061;49.068;12.058;2023-05-10T09:07:17;1.27;;;1.00;;
10041;SDS011;5061;49.068;12.058;2023-05-10T09:10:38;1.30;;;1.17;;
10041;SDS011;5061;49.068;12.058;2023-05-10T09:14:02;1.53;;;1.43;;
10041;SDS011;5061;49.068;12.058;2023-05-10T09:17:23;1.80;;;0.97;;
10041;SDS011;5061;49.068;12.058;2023-05-10T09:20:45;0.90;;;0.90;;
10041;SDS011;5061;49.068;12.058;2023-05-10T09:24:07;1.10;;;1.00;;
10041;SDS011;5061;49.068;12.058;2023-05-10T09:27:28;1.57;;;1.20;;
10041;SDS011;5061;49.068;12.058;2023-05-10T09:30:52;1.20;;;0.90;;
10041;SDS011;5061;49.068;12.058;2023-05-10T09:34:16;0.87;;;0.83;;
10041;SDS011;5061;49.068;12.058;2023-05-10T09:37:49;1.10;;;1.00;;
10041;SDS011;5061;49.068;12.058;2023-05-10T09:44:41;1.00;;;0.80;;
10041;SDS011;5061;49.068;12.058;2023-05-10T09:48:03;1.87;;;0.80;;
10041;SDS011;5061;49.068;12.058;2023-05-10T09:51:24;1.20;;;1.10;;
10041;SDS011;5061;49.068;12.058;2023-05-10T09:54:52;0.80;;;0.80;;
10041;SDS011;5061;49.068;12.058;2023-05-10T09:58:13;1.20;;;1.10;;
10041;SDS011;5061;49.068;12.058;2023-05-10T10:01:34;1.53;;;1.20;;
10041;SDS011;5061;49.068;12.058;2023-05-10T10:04:56;0.97;;;0.90;;
10041;SDS011;5061;49.068;12.058;2023-05-10T10:08:17;1.10;;;1.00;;
10041;SDS011;5061;49.068;12.058;2023-05-10T10:11:38;1.03;;;0.93;;
10041;SDS011;5061;49.068;12.058;2023-05-10T10:15:01;1.03;;;0.90;;
10041;SDS011;5061;49.068;12.058;2023-05-10T10:18:22;3.33;;;1.17;;
10041;SDS011;5061;49.068;12.058;2023-05-10T10:21:50;1.93;;;1.00;;
10041;SDS011;5061;49.068;12.058;2023-05-10T10:25:11;1.10;;;1.00;;
10041;SDS011;5061;49.068;12.058;2023-05-10T10:32:09;1.23;;;0.93;;
10041;SDS011;5061;49.068;12.058;2023-05-10T10:35:40;1.00;;;0.90;;
10041;SDS011;5061;49.068;12.058;2023-05-10T10:39:01;1.90;;;1.10;;
10041;SDS011;5061;49.068;12.058;2023-05-10T10:42:43;1.30;;;1.20;;
10041;SDS011;5061;49.068;12.058;2023-05-10T10:46:13;1.03;;;0.93;;
10041;SDS011;5061;49.068;12.058;2023-05-10T10:53:10;1.63;;;0.90;;
10041;SDS011;5061;49.068;12.058;2023-05-10T10:56:32;1.30;;;1.10;;
10041;SDS011;5061;49.068;12.058;2023-05-10T11:07:19;1.10;;;1.00;;
10041;SDS011;5061;49.068;12.058;2023-05-10T11:10:48;0.80;;;0.80;;
10041;SDS011;5061;49.068;12.058;2023-05-10T11:14:23;1.00;;;0.90;;
10041;SDS011;5061;49.068;12.058;2023-05-10T11:17:45;1.13;;;1.03;;
10041;SDS011;5061;49.068;12.058;2023-05-10T11:21:12;2.00;;;1.00;;
10041;SDS011;5061;49.068;12.058;2023-05-10T11:24:35;1.00;;;0.90;;
10041;SDS011;5061;49.068;12.058;2023-05-10T11:27:57;0.80;;;0.80;;
10041;SDS011;5061;49.068;12.058;2023-05-10T11:31:22;1.10;;;1.00;;
10041;SDS011;5061;49.068;12.058;2023-05-10T11:34:46;1.10;;;0.80;;
10041;SDS011;5061;49.068;12.058;2023-05-10T11:38:09;1.00;;;0.90;;
10041;SDS011;5061;49.068;12.058;2023-05-10T11:41:31;0.80;;;0.80;;
10041;SDS011;5061;49.068;12.058;2023-05-10T11:44:52;1.10;;;1.00;;
10041;SDS011;5061;49.068;12.058;2023-05-10T11:48:13;0.80;;;0.80;;
10041;SDS011;5061;49.068;12.058;2023-05-10T11:51:36;1.83;;;1.10;;
10041;SDS011;5061;49.068;12.058;2023-05-10T11:54:59;1.07;;;0.90;;
10041;SDS011;5061;49.068;12.058;2023-05-10T11:58:20;0.80;;;0.80;;
10041;SDS011;5061;49.068;12.058;2023-05-10T12:01:43;1.07;;;0.97;;
10041;SDS011;5061;49.068;12.058;2023-05-10T12:05:04;0.90;;;0.80;;
10041;SDS011;5061;49.068;12.058;2023-05-10T12:08:26;1.37;;;1.00;;
10041;SDS011;5061;49.068;12.058;2023-05-10T12:11:48;1.47;;;1.00;;
10041;SDS011;5061;49.068;12.058;2023-05-10T12:15:19;0.90;;;0.80;;
10041;SDS011;5061;49.068;12.058;2023-05-10T12:18:41;1.40;;;1.03;;
10041;SDS011;5061;49.068;12.058;2023-05-10T12:22:05;1.00;;;0.90;;
10041;SDS011;5061;49.068;12.058;2023-05-10T12:25:29;1.10;;;0.90;;
10041;SDS011;5061;49.068;12.058;2023-05-10T12:29:10;1.07;;;0.80;;
10041;SDS011;5061;49.068;12.058;2023-05-10T12:32:43;1.10;;;0.90;;
10041;SDS011;5061;49.068;12.058;2023-05-10T12:36:05;0.90;;;0.80;;
10041;SDS011;5061;49.068;12.058;2023-05-10T12:39:41;1.50;;;1.10;;
10041;SDS011;5061;49.068;12.058;2023-05-10T12:43:04;1.63;;;1.00;;
10041;SDS011;5061;49.068;12.058;2023-05-10T12:46:25;1.27;;;0.90;;
10041;SDS011;5061;49.068;12.058;2023-05-10T12:49:50;0.80;;;0.70;;
10041;SDS011;5061;49.068;12.058;2023-05-10T12:53:11;0.87;;;0.70;;
10041;SDS011;5061;49.068;12.058;2023-05-10T12:56:36;0.80;;;0.70;;
10041;SDS011;5061;49.068;12.058;2023-05-10T13:00:03;0.80;;;0.80;;
10041;SDS011;5061;49.068;12.058;2023-05-10T13:03:25;0.80;;;0.70;;
10041;SDS011;5061;49.068;12.058;2023-05-10T13:06:50;0.90;;;0.70;;
10041;SDS011;5061;49.068;12.058;2023-05-10T13:10:11;0.80;;;0.70;;
10041;SDS011;5061;49.068;12.058;2023-05-10T13:13:32;0.80;;;0.70;;
10041;SDS011;5061;49.068;12.058;2023-05-10T13:16:53;0.80;;;0.70;;
10041;SDS011;5061;49.068;12.058;2023-05-10T13:20:15;0.80;;;0.73;;
10041;SDS011;5061;49.068;12.058;2023-05-10T13:23:37;0.90;;;0.70;;
10041;SDS011;5061;49.068;12.058;2023-05-10T13:26:58;0.80;;;0.70;;
10041;SDS011;5061;49.068;12.058;2023-05-10T13:30:19;0.70;;;0.70;;
10041;SDS011;5061;49.068;12.058;2023-05-10T13:33:40;0.70;;;0.70;;
10041;SDS011;5061;49.068;12.058;2023-05-10T13:37:02;1.00;;;0.70;;
10041;SDS011;5061;49.068;12.058;2023-05-10T13:40:23;0.70;;;0.70;;
10041;SDS011;5061;49.068;12.058;2023-05-10T13:43:43;0.80;;;0.80;;
10041;SDS011;5061;49.068;12.058;2023-05-10T13:47:04;0.80;;;0.80;;
10041;SDS011;5061;49.068;12.058;2023-05-10T13:50:26;1.00;;;0.90;;
10041;SDS011;5061;49.068;12.058;2023-05-10T13:53:47;0.80;;;0.70;;
10041;SDS011;5061;49.068;12.058;2023-05-10T13:57:08;1.73;;;0.90;;
10041;SDS011;5061;49.068;12.058;2023-05-10T14:00:30;1.10;;;0.87;;
10041;SDS011;5061;49.068;12.058;2023-05-10T14:03:53;0.90;;;0.70;;
10041;SDS011;5061;49.068;12.058;2023-05-10T14:07:17;1.37;;;0.80;;
10041;SDS011;5061;49.068;12.058;2023-05-10T14:10:37;0.90;;;0.80;;
10041;SDS011;5061;49.068;12.058;2023-05-10T14:13:59;0.90;;;0.80;;
10041;SDS011;5061;49.068;12.058;2023-05-10T14:17:20;0.80;;;0.80;;
10041;SDS011;5061;49.068;12.058;2023-05-10T14:20:42;1.00;;;0.90;;
10041;SDS011;5061;49.068;12.058;2023-05-10T14:24:03;4.00;;;0.83;;
10041;SDS011;5061;49.068;12.058;2023-05-10T14:27:24;2.13;;;0.83;;
10041;SDS011;5061;49.068;12.058;2023-05-10T14:30:45;0.90;;;0.80;;
10041;SDS011;5061;49.068;12.058;2023-05-10T14:34:07;1.20;;;1.10;;
10041;SDS011;5061;49.068;12.058;2023-05-10T14:37:28;0.80;;;0.80;;
10041;SDS011;5061;49.068;12.058;2023-05-10T14:40:49;1.13;;;0.97;;
10041;SDS011;5061;49.068;12.058;2023-05-10T14:44:11;0.90;;;0.70;;
10041;SDS011;5061;49.068;12.058;2023-05-10T14:47:32;0.80;;;0.80;;
10041;SDS011;5061;49.068;12.058;2023-05-10T14:50:53;1.10;;;0.90;;
10041;SDS011;5061;49.068;12.058;2023-05-10T14:54:14;1.77;;;1.00;;
10041;SDS011;5061;49.068;12.058;2023-05-10T14:57:35;0.80;;;0.80;;
10041;SDS011;5061;49.068;12.058;2023-05-10T15:00:57;1.10;;;0.97;;
10041;SDS011;5061;49.068;12.058;2023-05-10T15:04:17;0.80;;;0.80;;
10041;SDS011;5061;49.068;12.058;2023-05-10T15:07:38;0.90;;;0.80;;
10041;SDS011;5061;49.068;12.058;2023-05-10T15:10:59;0.93;;;0.87;;
10041;SDS011;5061;49.068;12.058;2023-05-10T15:14:20;1.00;;;0.80;;
10041;SDS011;5061;49.068;12.058;2023-05-10T15:17:42;0.80;;;0.80;;
10041;SDS011;5061;49.068;12.058;2023-05-10T15:21:03;0.97;;;0.80;;
10041;SDS011;5061;49.068;12.058;2023-05-10T15:24:24;1.20;;;1.10;;
10041;SDS011;5061;49.068;12.058;2023-05-10T15:27:45;0.77;;;0.70;;
10041;SDS011;5061;49.068;12.058;2023-05-10T15:31:06;0.80;;;0.70;;
10041;SDS011;5061;49.068;12.058;2023-05-10T15:34:28;1.50;;;1.10;;
10041;SDS011;5061;49.068;12.058;2023-05-10T15:37:49;1.20;;;1.10;;
10041;SDS011;5061;49.068;12.058;2023-05-10T15:41:10;1.27;;;1.17;;
10041;SDS011;5061;49.068;12.058;2023-05-10T15:44:32;1.47;;;1.10;;
10041;SDS011;5061;49.068;12.058;2023-05-10T15:47:55;1.40;;;1.20;;
10041;SDS011;5061;49.068;12.058;2023-05-10T15:51:16;1.97;;;1.17;;
10041;SDS011;5061;49.068;12.058;2023-05-10T15:54:37;1.43;;;1.20;;
10041;SDS011;5061;49.068;12.058;2023-05-10T15:57:58;1.40;;;1.30;;
10041;SDS011;5061;49.068;12.058;2023-05-10T16:01:20;1.40;;;1.30;;
10041;SDS011;5061;49.068;12.058;2023-05-10T16:04:40;1.20;;;1.10;;
10041;SDS011;5061;49.068;12.058;2023-05-10T16:08:03;0.93;;;0.93;;
10041;SDS011;5061;49.068;12.058;2023-05-10T16:11:24;1.33;;;1.23;;
10041;SDS011;5061;49.068;12.058;2023-05-10T16:14:45;1.20;;;1.10;;
10041;SDS011;5061;49.068;12.058;2023-05-10T16:18:07;1.47;;;1.37;;
10041;SDS011;5061;49.068;12.058;2023-05-10T16:21:29;1.57;;;1.10;;
10041;SDS011;5061;49.068;12.058;2023-05-10T16:24:53;1.33;;;1.23;;
10041;SDS011;5061;49.068;12.058;2023-05-10T16:28:16;1.50;;;1.20;;
10041;SDS011;5061;49.068;12.058;2023-05-10T16:31:40;2.13;;;1.13;;
10041;SDS011;5061;49.068;12.058;2023-05-10T16:35:01;1.20;;;1.10;;
10041;SDS011;5061;49.068;12.058;2023-05-10T16:38:22;3.10;;;1.30;;
10041;SDS011;5061;49.068;12.058;2023-05-10T16:41:43;2.13;;;1.43;;
10041;SDS011;5061;49.068;12.058;2023-05-10T16:45:05;1.20;;;1.10;;
10041;SDS011;5061;49.068;12.058;2023-05-10T16:48:26;1.10;;;1.00;;
10041;SDS011;5061;49.068;12.058;2023-05-10T16:51:48;2.27;;;1.10;;
10041;SDS011;5061;49.068;12.058;2023-05-10T16:55:09;1.20;;;1.10;;
10041;SDS011;5061;49.068;12.058;2023-05-10T16:58:33;1.10;;;1.00;;
10041;SDS011;5061;49.068;12.058;2023-05-10T17:01:54;1.10;;;1.00;;
10041;SDS011;5061;49.068;12.058;2023-05-10T17:05:15;1.13;;;1.03;;
10041;SDS011;5061;49.068;12.058;2023-05-10T17:08:36;1.20;;;0.93;;
10041;SDS011;5061;49.068;12.058;2023-05-10T17:11:59;1.00;;;0.90;;
10041;SDS011;5061;49.068;12.058;2023-05-10T17:15:22;1.10;;;1.00;;
10041;SDS011;5061;49.068;12.058;2023-05-10T17:18:43;1.20;;;1.10;;
10041;SDS011;5061;49.068;12.058;2023-05-10T17:22:04;1.10;;;1.00;;
10041;SDS011;5061;49.068;12.058;2023-05-10T17:25:25;1.20;;;1.10;;
10041;SDS011;5061;49.068;12.058;2023-05-10T17:28:47;1.57;;;1.10;;
10041;SDS011;5061;49.068;12.058;2023-05-10T17:32:08;1.10;;;1.00;;
10041;SDS011;5061;49.068;12.058;2023-05-10T17:35:29;1.17;;;1.07;;
10041;SDS011;5061;49.068;12.058;2023-05-10T17:38:50;2.50;;;1.33;;
10041;SDS011;5061;49.068;12.058;2023-05-10T17:42:11;2.10;;;1.37;;
10041;SDS011;5061;49.068;12.058;2023-05-10T17:45:33;1.87;;;1.70;;
10041;SDS011;5061;49.068;12.058;2023-05-10T17:48:55;2.90;;;1.60;;
10041;SDS011;5061;49.068;12.058;2023-05-10T17:52:16;1.67;;;1.57;;
10041;SDS011;5061;49.068;12.058;2023-05-10T17:55:40;2.77;;;2.47;;
10041;SDS011;5061;49.068;12.058;2023-05-10T17:59:02;1.40;;;1.30;;
10041;SDS011;5061;49.068;12.058;2023-05-10T18:02:24;1.60;;;1.50;;
10041;SDS011;5061;49.068;12.058;2023-05-10T18:05:45;1.67;;;1.50;;
10041;SDS011;5061;49.068;12.058;2023-05-10T18:09:07;2.77;;;1.37;;
10041;SDS011;5061;49.068;12.058;2023-05-10T18:12:28;1.23;;;1.13;;
10041;SDS011;5061;49.068;12.058;2023-05-10T18:15:52;1.00;;;0.90;;
10041;SDS011;5061;49.068;12.058;2023-05-10T18:19:13;1.17;;;1.07;;
10041;SDS011;5061;49.068;12.058;2023-05-10T18:22:34;1.20;;;1.10;;
10041;SDS011;5061;49.068;12.058;2023-05-10T18:25:55;2.53;;;1.20;;
10041;SDS011;5061;49.068;12.058;2023-05-10T18:29:16;1.50;;;1.40;;
10041;SDS011;5061;49.068;12.058;2023-05-10T18:32:37;1.87;;;1.30;;
10041;SDS011;5061;49.068;12.058;2023-05-10T18:35:59;1.50;;;1.40;;
10041;SDS011;5061;49.068;12.058;2023-05-10T18:39:21;8.30;;;1.93;;
10041;SDS011;5061;49.068;12.058;2023-05-10T18:42:43;2.07;;;1.87;;
10041;SDS011;5061;49.068;12.058;2023-05-10T18:46:05;2.10;;;1.90;;
10041;SDS011;5061;49.068;12.058;2023-05-10T18:49:27;5.20;;;3.13;;
10041;SDS011;5061;49.068;12.058;2023-05-10T18:52:48;4.63;;;3.00;;
10041;SDS011;5061;49.068;12.058;2023-05-10T18:56:09;5.90;;;3.30;;
10041;SDS011;5061;49.068;12.058;2023-05-10T18:59:31;4.00;;;2.80;;
10041;SDS011;5061;49.068;12.058;2023-05-10T19:02:53;2.60;;;2.23;;
10041;SDS011;5061;49.068;12.058;2023-05-10T19:06:14;3.23;;;2.50;;
10041;SDS011;5061;49.068;12.058;2023-05-10T19:09:36;2.27;;;1.90;;
10041;SDS011;5061;49.068;12.058;2023-05-10T19:12:57;2.40;;;1.90;;
10041;SDS011;5061;49.068;12.058;2023-05-10T19:16:19;1.73;;;1.50;;
10041;SDS011;5061;49.068;12.058;2023-05-10T19:19:40;1.77;;;1.67;;
10041;SDS011;5061;49.068;12.058;2023-05-10T19:23:02;2.63;;;2.10;;
10041;SDS011;5061;49.068;12.058;2023-05-10T19:26:23;3.40;;;2.20;;
10041;SDS011;5061;49.068;12.058;2023-05-10T19:29:44;1.87;;;1.77;;
10041;SDS011;5061;49.068;12.058;2023-05-10T19:33:06;2.00;;;1.60;;
10041;SDS011;5061;49.068;12.058;2023-05-10T19:36:28;2.60;;;2.00;;
10041;SDS011;5061;49.068;12.058;2023-05-10T19:39:50;2.27;;;2.07;;
10041;SDS011;5061;49.068;12.058;2023-05-10T19:43:12;2.50;;;2.30;;
10041;SDS011;5061;49.068;12.058;2023-05-10T19:46:33;3.00;;;2.07;;
10041;SDS011;5061;49.068;12.058;2023-05-10T19:49:54;2.20;;;2.00;;
10041;SDS011;5061;49.068;12.058;2023-05-10T19:53:15;2.40;;;2.13;;
10041;SDS011;5061;49.068;12.058;2023-05-10T19:56:36;2.50;;;1.97;;
10041;SDS011;5061;49.068;12.058;2023-05-10T19:59:56;2.17;;;1.97;;
10041;SDS011;5061;49.068;12.058;2023-05-10T20:03:17;2.67;;;2.47;;
10041;SDS011;5061;49.068;12.058;2023-05-10T20:06:39;2.00;;;1.90;;
10041;SDS011;5061;49.068;12.058;2023-05-10T20:10:00;3.10;;;2.00;;
10041;SDS011;5061;49.068;12.058;2023-05-10T20:13:21;4.50;;;2.40;;
10041;SDS011;5061;49.068;12.058;2023-05-10T20:16:42;2.20;;;1.93;;
10041;SDS011;5061;49.068;12.058;2023-05-10T20:20:04;2.47;;;1.83;;
10041;SDS011;5061;49.068;12.058;2023-05-10T20:23:25;2.33;;;2.13;;
10041;SDS011;5061;49.068;12.058;2023-05-10T20:26:46;2.50;;;2.23;;
10041;SDS011;5061;49.068;12.058;2023-05-10T20:30:11;2.80;;;2.50;;
10041;SDS011;5061;49.068;12.058;2023-05-10T20:33:32;2.80;;;2.50;;
10041;SDS011;5061;49.068;12.058;2023-05-10T20:36:53;2.37;;;2.17;;
10041;SDS011;5061;49.068;12.058;2023-05-10T20:40:13;2.17;;;1.97;;
10041;SDS011;5061;49.068;12.058;2023-05-10T20:43:35;2.47;;;2.27;;
10041;SDS011;5061;49.068;12.058;2023-05-10T20:46:56;2.63;;;2.27;;
10041;SDS011;5061;49.068;12.058;2023-05-10T20:50:17;2.03;;;1.73;;
10041;SDS011;5061;49.068;12.058;2023-05-10T20:53:39;2.27;;;2.07;;
10041;SDS011;5061;49.068;12.058;2023-05-10T20:57:00;2.33;;;2.13;;